Time;durP1;ratioP1;P1;durP2;ratioP2;P2;SDS_P1;SDS_P2;PMS_P1;PMS_P2;Temp;Humidity;BMP_temperature;BMP_pressure;BME280_temperature;BME280_humidity;BME280_pressure;Samples;Min_cycle;Max_cycle;Signal;HPM_P1;HPM_P2
2022/03/08 00:01:04;;;;;;;14.15;8.77;;;1.60;65.50;;;0.29;51.86;95456.44;5030301;28;20315;-84
2022/03/08 00:03:31;;;;;;;15.20;9.07;;;1.60;65.60;;;0.28;51.47;95453.03;5018494;28;20221;-85
2022/03/08 00:05:59;;;;;;;14.82;9.60;;;1.60;65.50;;;0.26;51.51;95461.84;5018136;28;20211;-84
2022/03/08 00:08:27;;;;;;;12.73;8.90;;;1.50;65.50;;;0.20;51.96;95455.38;5034084;28;20224;-84
2022/03/08 00:10:54;;;;;;;13.60;9.38;;;1.50;65.60;;;0.15;51.96;95444.59;5021869;28;20235;-84
2022/03/08 00:13:21;;;;;;;13.65;9.40;;;1.50;65.60;;;0.14;52.28;95454.06;5036282;28;20234;-84
2022/03/08 00:15:49;;;;;;;13.23;9.10;;;1.50;65.70;;;0.11;52.29;95456.03;5025784;28;20208;-85
2022/03/08 00:18:17;;;;;;;13.80;9.32;;;1.50;65.90;;;0.08;52.71;95449.34;5053979;28;20220;-84
2022/03/08 00:20:44;;;;;;;15.15;9.77;;;1.50;66.00;;;0.05;52.97;95449.59;5034006;28;20193;-85
2022/03/08 00:23:12;;;;;;;14.70;9.32;;;1.40;66.10;;;0.05;52.87;95447.03;5050687;28;20217;-84
2022/03/08 00:25:39;;;;;;;14.48;9.48;;;1.40;66.20;;;0.01;52.79;95450.75;5043169;28;20193;-84
2022/03/08 00:28:06;;;;;;;12.77;8.32;;;1.40;66.30;;;-0.02;52.70;95451.00;5033036;28;20229;-84
2022/03/08 00:30:33;;;;;;;14.43;9.35;;;1.30;66.20;;;-0.02;52.54;95451.78;5049862;28;20558;-84
2022/03/08 00:33:01;;;;;;;11.95;8.68;;;1.30;66.20;;;-0.03;52.61;95449.34;5017822;28;20838;-84
2022/03/08 00:35:28;;;;;;;14.25;9.73;;;1.30;66.20;;;-0.08;52.75;95448.88;5053833;28;20202;-84
2022/03/08 00:37:59;;;;;;;12.15;8.82;;;1.30;66.30;;;-0.06;52.58;95450.38;5023939;28;20204;-85
2022/03/08 00:40:29;;;;;;;16.95;9.35;;;1.20;66.30;;;-0.06;52.72;95446.97;5050700;28;20650;-84
2022/03/08 00:42:59;;;;;;;11.80;8.93;;;1.20;66.30;;;-0.02;52.70;95451.00;5017843;28;20200;-84
2022/03/08 00:45:27;;;;;;;13.07;9.00;;;1.20;66.30;;;-0.02;52.52;95445.84;5032272;28;20280;-84
2022/03/08 00:47:54;;;;;;;13.98;8.38;;;1.20;66.40;;;0.03;52.25;95451.47;5066643;28;20266;-84
2022/03/08 00:50:26;;;;;;;11.55;8.52;;;1.20;66.30;;;0.07;51.88;95452.06;5017299;28;20246;-84
2022/03/08 00:52:56;;;;;;;12.02;8.13;;;1.20;66.30;;;0.09;51.88;95451.00;5053247;28;20185;-85
2022/03/08 00:55:26;;;;;;;12.13;7.80;;;1.30;66.30;;;0.04;51.48;95439.38;5037261;28;20250;-84
2022/03/08 00:57:54;;;;;;;14.82;9.02;;;1.20;66.20;;;0.12;51.68;95445.63;5019825;28;20188;-84
2022/03/08 01:00:24;;;;;;;13.18;8.20;;;1.30;66.20;;;0.13;51.19;95439.50;4999980;28;20204;-84
2022/03/08 01:02:52;;;;;;;12.82;8.43;;;1.30;66.20;;;0.14;51.31;95441.16;5000752;28;20221;-84
2022/03/08 01:05:20;;;;;;;13.13;8.60;;;1.30;66.10;;;0.13;51.58;95441.28;5017055;28;20197;-84
2022/03/08 01:07:47;;;;;;;11.73;8.23;;;1.30;66.10;;;0.13;51.54;95436.13;5000112;28;20196;-84
2022/03/08 01:10:18;;;;;;;13.27;9.20;;;1.30;66.00;;;-0.01;51.47;95411.38;5016204;28;20299;-84
2022/03/08 01:12:48;;;;;;;18.83;9.93;;;1.30;66.10;;;-0.05;51.62;95407.38;5046321;28;20196;-84
2022/03/08 01:15:16;;;;;;;15.57;10.48;;;1.30;66.00;;;0.08;51.76;95433.88;5033265;28;20247;-84
2022/03/08 01:17:44;;;;;;;17.00;10.95;;;1.30;66.10;;;0.07;52.23;95428.84;5015796;28;20515;-84
2022/03/08 01:20:14;;;;;;;18.30;12.10;;;1.30;66.30;;;0.04;52.30;95424.75;5016368;28;20274;-84
2022/03/08 01:22:42;;;;;;;15.38;11.55;;;1.30;66.30;;;0.03;52.47;95424.88;5022098;28;20265;-84
2022/03/08 01:25:12;;;;;;;16.35;11.38;;;1.30;66.30;;;0.03;52.49;95430.03;5032343;28;20244;-84
2022/03/08 01:27:40;;;;;;;16.58;11.32;;;1.30;66.40;;;-0.01;52.59;95427.66;5032509;28;20613;-84
2022/03/08 01:30:12;;;;;;;16.77;12.05;;;1.30;66.40;;;-0.08;52.41;95423.06;4999570;28;20746;-84
2022/03/08 01:32:40;;;;;;;18.58;11.88;;;1.20;66.40;;;-0.08;52.44;95423.06;4996867;28;20241;-84
2022/03/08 01:35:08;;;;;;;15.82;11.45;;;1.20;66.30;;;-0.12;52.66;95430.22;5031476;28;20207;-84
2022/03/08 01:37:36;;;;;;;18.17;11.82;;;1.20;66.30;;;-0.19;52.95;95429.84;5031034;28;20211;-84
2022/03/08 01:40:06;;;;;;;17.48;11.70;;;1.20;66.50;;;-0.24;53.08;95418.22;5020858;28;20213;-84
2022/03/08 01:42:34;;;;;;;17.45;11.95;;;1.20;66.50;;;-0.28;53.22;95419.38;5033152;28;20200;-84
2022/03/08 01:45:04;;;;;;;21.40;11.45;;;1.10;66.50;;;-0.33;53.36;95412.81;5020566;28;20291;-84
2022/03/08 01:47:31;;;;;;;15.98;11.85;;;1.10;66.70;;;-0.37;53.43;95411.38;5015721;28;20301;-84
2022/03/08 01:49:58;;;;;;;18.95;12.13;;;1.00;66.60;;;-0.42;53.31;95404.94;5032685;28;20228;-84
2022/03/08 01:52:27;;;;;;;17.42;11.68;;;1.00;66.70;;;-0.46;53.58;95412.06;5049113;28;20201;-84
2022/03/08 01:54:54;;;;;;;16.58;11.57;;;1.00;66.70;;;-0.51;53.57;95411.59;5015770;28;20222;-83
2022/03/08 01:57:23;;;;;;;20.10;12.73;;;0.90;66.70;;;-0.55;53.89;95404.97;5050615;28;20216;-83
2022/03/08 01:59:53;;;;;;;19.38;12.25;;;0.90;66.90;;;-0.65;53.85;95395.38;4996924;28;20218;-84
2022/03/08 02:02:21;;;;;;;17.40;11.98;;;0.80;67.00;;;-0.62;53.97;95401.22;5042197;28;20196;-84
2022/03/08 02:04:50;;;;;;;19.95;12.57;;;0.80;66.90;;;-0.69;54.01;95399.06;5015062;28;20232;-84
2022/03/08 02:07:18;;;;;;;23.10;12.80;;;0.70;66.90;;;-0.70;54.41;95399.19;5048138;28;20292;-83
2022/03/08 02:09:45;;;;;;;19.67;12.98;;;0.70;67.20;;;-0.71;54.36;95398.38;5027770;28;20223;-84
2022/03/08 02:12:12;;;;;;;20.77;13.75;;;0.70;67.30;;;-0.74;54.97;95392.63;5026412;28;20225;-84
2022/03/08 02:14:44;;;;;;;18.98;13.35;;;0.70;67.50;;;-0.83;54.57;95381.22;5029155;28;20276;-84
2022/03/08 02:17:12;;;;;;;18.80;12.50;;;0.60;67.50;;;-0.80;54.99;95383.59;5016689;28;20267;-83
2022/03/08 02:19:39;;;;;;;21.58;13.40;;;0.60;67.60;;;-0.82;55.03;95388.84;5030800;28;20226;-83
2022/03/08 02:22:07;;;;;;;18.85;13.48;;;0.60;67.70;;;-0.82;54.88;95388.84;5015655;28;20200;-83
2022/03/08 02:24:34;;;;;;;19.60;13.20;;;0.60;67.70;;;-0.85;55.31;95381.34;5032017;28;20216;-83
2022/03/08 02:27:01;;;;;;;18.42;13.13;;;0.50;67.70;;;-0.86;55.12;95384.03;5031845;28;20196;-83
2022/03/08 02:29:28;;;;;;;23.65;14.25;;;0.50;67.70;;;-0.89;55.86;95390.22;5048524;28;20311;-84
2022/03/08 02:31:57;;;;;;;19.65;12.52;;;0.50;68.10;;;-0.88;55.10;95383.31;5017294;28;20283;-84
2022/03/08 02:34:24;;;;;;;17.83;12.02;;;0.50;68.10;;;-0.88;55.63;95386.72;5035698;28;20315;-83
2022/03/08 02:37:19;;;;;;;18.25;12.85;;;0.50;68.00;;;-0.91;55.13;95386.13;5033527;28;20274;-83
2022/03/08 02:39:46;;;;;;;19.30;12.70;;;0.40;68.10;;;-0.90;55.05;95392.91;5034644;28;20219;-84
2022/03/08 02:42:13;;;;;;;22.52;13.32;;;0.40;67.80;;;-1.02;55.32;95376.56;5035332;28;20235;-85
2022/03/08 02:44:41;;;;;;;20.42;13.00;;;0.40;68.00;;;-0.96;55.74;95386.44;5035557;28;20311;-84
2022/03/08 02:47:08;;;;;;;18.90;12.60;;;0.40;68.10;;;-0.94;55.37;95387.16;5023504;28;20626;-84
2022/03/08 02:49:35;;;;;;;19.50;12.43;;;0.40;69.00;;;-0.92;55.63;95392.19;5033001;28;20231;-84
2022/03/08 02:52:03;;;;;;;18.45;13.20;;;0.40;68.30;;;-0.95;56.04;95384.66;5018745;28;20238;-83
2022/03/08 02:54:30;;;;;;;23.88;13.75;;;0.40;68.50;;;-0.92;56.28;95393.00;5031843;28;20332;-84
2022/03/08 02:56:57;;;;;;;19.42;13.60;;;0.40;69.20;;;-0.89;56.52;95390.22;5031081;28;20203;-83
2022/03/08 02:59:24;;;;;;;19.35;13.23;;;0.40;69.20;;;-0.88;56.21;95385.88;5052716;28;20294;-83
2022/03/08 03:01:51;;;;;;;20.60;12.57;;;0.40;69.10;;;-0.88;56.36;95388.44;5049695;28;20295;-84
2022/03/08 03:04:19;;;;;;;19.50;13.20;;;0.50;69.20;;;-0.88;56.60;95394.44;5035014;28;20234;-83
2022/03/08 03:06:46;;;;;;;17.73;12.65;;;0.40;69.20;;;-0.88;56.64;95393.59;5032819;28;20198;-83
2022/03/08 03:09:13;;;;;;;22.42;13.70;;;0.40;69.20;;;-0.87;56.73;95390.91;5047908;28;20229;-84
2022/03/08 03:11:40;;;;;;;19.73;13.38;;;0.40;69.10;;;-0.91;56.59;95391.25;5002617;28;20260;-84
2022/03/08 03:14:08;;;;;;;18.63;13.65;;;0.40;69.20;;;-0.86;56.81;95404.63;5054678;28;20314;-84
2022/03/08 03:16:36;;;;;;;21.70;13.40;;;0.40;69.10;;;-0.90;56.79;95396.28;5020682;28;20200;-83
2022/03/08 03:19:04;;;;;;;18.95;12.98;;;0.40;69.10;;;-0.86;56.88;95399.47;5030981;28;20221;-83
2022/03/08 03:21:31;;;;;;;18.20;11.82;;;0.40;69.20;;;-0.88;57.13;95407.31;5071470;28;20262;-84
2022/03/08 03:23:58;;;;;;;18.25;12.65;;;0.40;69.20;;;-0.88;57.07;95404.75;5038596;28;20216;-83
2022/03/08 03:26:25;;;;;;;20.23;12.05;;;0.40;69.20;;;-0.87;56.86;95408.13;5038024;28;20630;-83
2022/03/08 03:28:52;;;;;;;20.05;13.65;;;0.40;69.10;;;-1.00;56.96;95397.88;5034465;28;20327;-83
2022/03/08 03:31:19;;;;;;;18.42;12.60;;;0.40;69.10;;;-0.89;56.70;95407.41;5017786;28;20193;-83
2022/03/08 03:33:47;;;;;;;18.45;13.05;;;0.40;69.20;;;-0.91;57.16;95406.72;5018204;28;20267;-83
2022/03/08 03:36:14;;;;;;;18.80;12.82;;;0.40;69.20;;;-0.92;56.95;95405.06;5051731;28;20196;-83
2022/03/08 03:38:41;;;;;;;27.25;13.77;;;0.40;69.20;;;-0.92;57.41;95413.59;5038214;28;20293;-83
2022/03/08 03:41:09;;;;;;;17.90;12.73;;;0.40;69.20;;;-0.94;57.61;95412.06;5042575;28;20205;-83
2022/03/08 03:43:36;;;;;;;19.77;12.43;;;0.40;69.30;;;-0.97;57.42;95416.50;5038298;28;20315;-83
2022/03/08 03:46:05;;;;;;;17.88;12.02;;;0.40;69.40;;;-0.92;57.52;95411.03;5071238;28;20210;-83
2022/03/08 03:48:34;;;;;;;19.60;12.80;;;0.30;69.50;;;-0.94;57.19;95405.19;5019352;28;20220;-83
2022/03/08 03:51:01;;;;;;;16.40;11.80;;;0.40;69.40;;;-0.94;57.21;95407.75;5019904;28;20276;-84
2022/03/08 03:53:29;;;;;;;18.52;12.40;;;0.30;69.10;;;-0.95;57.18;95407.84;5039204;28;20248;-83
2022/03/08 03:55:56;;;;;;;19.08;12.68;;;0.40;69.20;;;-0.98;56.91;95409.72;5018060;28;20220;-83
2022/03/08 03:58:24;;;;;;;17.35;12.23;;;0.30;69.10;;;-1.02;57.11;95410.03;5018112;28;20221;-83
2022/03/08 04:00:51;;;;;;;17.83;12.30;;;0.30;69.10;;;-1.08;56.83;95410.47;5032320;28;20287;-84
2022/03/08 04:03:19;;;;;;;22.13;11.50;;;0.30;69.10;;;-1.08;56.57;95413.84;5023471;28;20238;-83
2022/03/08 04:05:46;;;;;;;19.58;13.27;;;0.30;69.00;;;-1.22;57.30;95401.13;5018213;28;20189;-83
2022/03/08 04:08:13;;;;;;;20.15;13.00;;;0.30;69.10;;;-1.29;57.82;95393.03;5033987;28;20209;-84
2022/03/08 04:10:41;;;;;;;16.63;11.73;;;0.30;69.40;;;-1.09;57.37;95419.13;5017269;28;20224;-83
2022/03/08 04:13:08;;;;;;;20.25;13.40;;;0.20;69.00;;;-1.16;57.32;95413.56;5064501;28;20228;-83
2022/03/08 04:15:36;;;;;;;20.08;12.35;;;0.20;69.00;;;-1.13;57.45;95424.47;5031850;28;20242;-83
2022/03/08 04:18:03;;;;;;;23.77;13.32;;;0.20;69.30;;;-1.15;57.41;95416.06;5067284;28;20655;-83
2022/03/08 04:20:30;;;;;;;20.15;13.25;;;0.30;69.60;;;-1.18;57.88;95423.16;5001151;28;20228;-83
2022/03/08 04:22:57;;;;;;;20.55;13.07;;;0.20;69.60;;;-1.19;57.91;95421.53;5032969;28;20204;-82
2022/03/08 04:25:25;;;;;;;17.92;12.57;;;0.20;69.70;;;-1.22;57.41;95416.56;5031830;28;20225;-83
2022/03/08 04:27:52;;;;;;;20.23;13.40;;;0.20;69.60;;;-1.18;57.40;95418.84;5017452;28;20236;-83
2022/03/08 04:30:20;;;;;;;19.55;13.60;;;0.20;69.60;;;-1.23;57.68;95420.06;5035049;28;20255;-82
2022/03/08 04:32:50;;;;;;;21.05;13.85;;;0.20;69.60;;;-1.23;57.61;95418.34;5042780;28;20359;-83
2022/03/08 04:35:19;;;;;;;19.38;13.45;;;0.10;69.50;;;-1.25;58.05;95422.75;5015563;28;20760;-83
2022/03/08 04:37:46;;;;;;;20.80;12.93;;;0.10;69.60;;;-1.32;58.13;95411.25;5026918;28;20239;-84
2022/03/08 04:40:14;;;;;;;17.00;12.27;;;0.10;69.70;;;-1.33;57.88;95409.59;5053549;28;20199;-83
2022/03/08 04:42:43;;;;;;;21.13;12.77;;;0.10;69.60;;;-1.31;57.86;95410.31;5032843;28;20246;-84
2022/03/08 04:45:12;;;;;;;21.50;13.70;;;0.10;69.70;;;-1.34;57.86;95405.41;5000519;28;20230;-83
2022/03/08 04:47:39;;;;;;;19.70;13.38;;;0.10;69.80;;;-1.39;57.53;95404.88;5049161;28;20196;-83
2022/03/08 04:50:10;;;;;;;21.75;14.07;;;0.00;69.70;;;-1.42;58.27;95400.75;5033310;28;20224;-83
2022/03/08 04:52:38;;;;;;;20.20;14.00;;;0.00;69.80;;;-1.42;58.03;95411.06;5014696;28;20197;-83
2022/03/08 04:55:06;;;;;;;21.20;13.82;;;0.00;69.70;;;-1.45;58.03;95408.72;5030429;28;20224;-84
2022/03/08 04:57:33;;;;;;;23.55;14.13;;;-0.10;69.70;;;-1.47;58.09;95403.66;5023438;28;20684;-84
2022/03/08 05:00:00;;;;;;;22.10;14.63;;;-0.10;69.80;;;-1.49;58.29;95407.25;5050603;28;20244;-83
2022/03/08 05:02:29;;;;;;;22.85;15.45;;;-0.10;69.90;;;-1.51;58.72;95406.56;5017300;28;20193;-84
2022/03/08 05:04:57;;;;;;;22.17;14.55;;;-0.10;70.20;;;-1.61;58.55;95390.94;5035835;28;20212;-83
2022/03/08 05:07:24;;;;;;;22.83;14.27;;;-0.10;70.20;;;-1.54;58.72;95397.28;5020106;28;20201;-83
2022/03/08 05:09:51;;;;;;;21.10;14.57;;;-0.10;70.30;;;-1.54;58.68;95402.41;5016794;28;20236;-83
2022/03/08 05:12:18;;;;;;;22.75;15.32;;;-0.10;70.40;;;-1.48;58.63;95408.91;5016892;28;20219;-83
2022/03/08 05:14:45;;;;;;;24.45;15.32;;;-0.20;70.30;;;-1.53;58.64;95396.34;5018114;28;20212;-82
2022/03/08 05:17:12;;;;;;;21.98;15.32;;;-0.20;70.30;;;-1.52;58.75;95397.19;5015728;28;20228;-84
2022/03/08 05:19:39;;;;;;;21.38;14.48;;;-0.20;70.40;;;-1.48;58.48;95409.75;5016422;28;20274;-83
2022/03/08 05:22:06;;;;;;;21.85;15.25;;;-0.20;70.50;;;-1.48;58.65;95409.75;5032764;28;20211;-84
2022/03/08 05:24:33;;;;;;;23.10;15.18;;;-0.20;70.50;;;-1.48;58.69;95409.75;5032439;28;20648;-83
2022/03/08 05:27:01;;;;;;;25.33;16.25;;;-0.20;70.50;;;-1.47;58.60;95413.13;5016788;28;20200;-83
2022/03/08 05:29:28;;;;;;;25.75;16.48;;;-0.20;70.50;;;-1.49;58.79;95404.69;5032290;28;20244;-83
2022/03/08 05:31:55;;;;;;;23.98;15.85;;;-0.20;70.50;;;-1.49;58.78;95408.09;5048786;28;20221;-83
2022/03/08 05:34:22;;;;;;;22.92;15.43;;;-0.20;70.60;;;-1.48;58.51;95403.75;5016345;28;20213;-83
2022/03/08 05:36:49;;;;;;;25.40;15.43;;;-0.20;70.50;;;-1.50;58.73;95397.88;5015307;28;20200;-82
2022/03/08 05:39:17;;;;;;;24.08;14.93;;;-0.20;70.50;;;-1.51;58.71;95406.56;5015238;28;20311;-83
2022/03/08 05:41:44;;;;;;;23.38;15.23;;;-0.20;70.60;;;-1.51;58.94;95407.38;5048793;28;20239;-82
2022/03/08 05:44:11;;;;;;;24.02;15.68;;;-0.20;70.60;;;-1.49;58.61;95405.53;5015753;28;20744;-83
2022/03/08 05:46:38;;;;;;;23.55;14.95;;;-0.20;70.60;;;-1.49;58.73;95400.38;5016118;28;20224;-83
2022/03/08 05:49:06;;;;;;;23.35;15.35;;;-0.20;70.60;;;-1.42;58.86;95402.53;5015934;28;20213;-84
2022/03/08 05:51:33;;;;;;;23.48;14.93;;;-0.20;70.70;;;-1.38;58.63;95409.94;5032511;28;20207;-83
2022/03/08 05:54:00;;;;;;;21.63;14.07;;;-0.20;70.80;;;-1.40;58.93;95392.94;5031420;28;20315;-84
2022/03/08 05:56:28;;;;;;;22.90;15.82;;;-0.10;70.90;;;-1.31;58.76;95410.31;5015904;28;20659;-83
2022/03/08 05:58:55;;;;;;;22.92;15.43;;;-0.10;71.00;;;-1.27;58.70;95413.50;5031884;28;20232;-83
2022/03/08 06:01:22;;;;;;;23.90;16.17;;;-0.10;70.90;;;-1.27;59.25;95405.78;5001706;28;20207;-83
2022/03/08 06:03:49;;;;;;;24.30;14.73;;;-0.10;71.10;;;-1.35;59.07;95385.75;5019401;28;20597;-83
2022/03/08 06:06:16;;;;;;;25.70;16.50;;;0.00;71.10;;;-1.21;59.38;95402.78;5035397;28;20187;-83
2022/03/08 06:08:44;;;;;;;23.48;14.55;;;0.00;71.40;;;-1.13;59.10;95421.09;5034667;28;20235;-82
2022/03/08 06:11:11;;;;;;;23.58;15.85;;;0.00;71.30;;;-1.09;59.17;95419.94;5055167;28;20233;-83
2022/03/08 06:13:41;;;;;;;24.75;15.85;;;0.10;71.30;;;-1.04;59.35;95419.63;5065217;28;20797;-84
2022/03/08 06:16:08;;;;;;;24.70;15.93;;;0.10;71.40;;;-0.99;59.23;95414.97;5026201;28;20196;-84
2022/03/08 06:18:36;;;;;;;28.23;16.42;;;0.10;71.50;;;-0.94;59.34;95419.78;5017711;28;20224;-84
2022/03/08 06:21:03;;;;;;;22.83;14.13;;;0.20;71.60;;;-0.87;59.50;95418.44;5048669;28;20203;-84
2022/03/08 06:23:30;;;;;;;24.02;15.02;;;0.20;71.70;;;-0.79;59.49;95416.13;5016562;28;20239;-83
2022/03/08 06:25:57;;;;;;;25.35;15.50;;;0.30;71.80;;;-0.69;59.53;95419.69;5023982;28;20232;-83
2022/03/08 06:28:28;;;;;;;24.20;15.25;;;0.30;71.80;;;-0.61;59.76;95410.59;5002881;28;20225;-85
2022/03/08 06:30:58;;;;;;;25.95;15.10;;;0.40;71.90;;;-0.53;58.79;95403.13;5016700;28;20232;-85
2022/03/08 06:33:26;;;;;;;22.88;14.80;;;0.40;71.80;;;-0.44;59.24;95409.38;5015163;28;20625;-85
2022/03/08 06:35:53;;;;;;;22.23;15.15;;;0.50;71.90;;;-0.35;59.05;95411.28;5033649;28;20208;-86
2022/03/08 06:38:20;;;;;;;24.73;14.63;;;0.60;71.90;;;-0.28;58.89;95414.22;5035163;28;20227;-86
2022/03/08 06:40:48;;;;;;;24.42;14.48;;;0.70;71.90;;;-0.21;58.80;95421.41;5035390;28;20196;-85
2022/03/08 06:43:14;;;;;;;21.00;14.82;;;0.70;72.00;;;-0.16;58.83;95415.88;5031814;28;20219;-85
2022/03/08 06:45:42;;;;;;;21.50;13.98;;;0.80;71.80;;;-0.16;58.74;95410.72;5019708;28;20193;-85
2022/03/08 06:48:10;;;;;;;22.50;14.93;;;0.80;71.70;;;0.00;58.39;95420.75;5035584;28;20364;-85
2022/03/08 06:50:40;;;;;;;24.58;15.30;;;0.90;71.70;;;0.06;58.52;95415.16;5017152;28;20294;-85
2022/03/08 06:53:07;;;;;;;23.38;14.57;;;1.00;71.60;;;0.15;58.40;95418.78;5064358;28;20216;-83
2022/03/08 06:55:35;;;;;;;20.60;14.45;;;1.00;71.50;;;0.24;58.22;95417.25;5019693;28;20195;-85
2022/03/08 06:58:06;;;;;;;24.20;15.27;;;1.20;71.60;;;0.34;57.91;95419.97;5003663;28;20193;-86
2022/03/08 07:00:33;;;;;;;22.17;14.90;;;1.20;71.50;;;0.40;58.18;95429.81;5059343;28;20231;-84
2022/03/08 07:03:00;;;;;;;18.80;14.13;;;1.30;72.50;;;0.52;57.73;95428.09;5023911;28;20192;-84
2022/03/08 07:05:28;;;;;;;21.92;14.63;;;1.30;71.40;;;0.59;57.92;95429.25;5011338;28;20631;-84
2022/03/08 07:07:55;;;;;;;24.10;13.90;;;1.40;71.40;;;0.64;57.38;95414.22;5049640;28;20209;-85
2022/03/08 07:10:22;;;;;;;21.13;14.10;;;1.50;71.30;;;0.76;57.29;95425.38;5026089;28;20251;-85
2022/03/08 07:12:50;;;;;;;22.83;14.05;;;1.60;71.30;;;0.86;56.85;95433.25;5034654;28;20281;-85
2022/03/08 07:15:17;;;;;;;18.92;13.40;;;1.70;71.30;;;0.95;57.08;95438.50;5015925;28;20228;-85
2022/03/08 07:17:46;;;;;;;22.20;13.80;;;1.70;71.10;;;1.06;56.90;95429.09;5034496;28;20203;-85
2022/03/08 07:20:14;;;;;;;20.65;13.38;;;1.80;71.00;;;1.15;56.68;95436.13;5025600;28;20208;-85
2022/03/08 07:22:42;;;;;;;22.58;13.75;;;1.90;70.90;;;1.23;56.48;95431.19;5015736;28;20689;-84
2022/03/08 07:25:10;;;;;;;19.10;13.05;;;2.00;70.90;;;1.28;56.35;95428.22;5002133;28;21041;-85
2022/03/08 07:27:39;;;;;;;25.02;14.52;;;2.10;70.70;;;1.38;56.16;95433.47;5025886;28;20205;-85
2022/03/08 07:30:09;;;;;;;20.55;13.88;;;2.10;70.50;;;1.46;56.15;95446.59;5009795;28;20322;-85
2022/03/08 07:32:36;;;;;;;19.33;13.60;;;2.20;70.50;;;1.52;56.22;95443.53;5025214;28;20291;-85
2022/03/08 07:35:06;;;;;;;18.92;13.32;;;2.30;70.50;;;1.48;55.82;95421.47;5032945;28;20251;-85
2022/03/08 07:37:35;;;;;;;19.13;13.13;;;2.30;70.50;;;1.68;55.83;95447.47;5033328;28;20254;-85
2022/03/08 07:40:08;;;;;;;19.15;12.68;;;2.40;70.60;;;1.73;55.85;95443.59;5048559;28;20303;-84
2022/03/08 07:42:35;;;;;;;17.55;12.30;;;2.50;70.60;;;1.85;55.48;95452.09;4998941;28;20208;-85
2022/03/08 07:45:03;;;;;;;19.42;11.77;;;2.60;70.70;;;1.96;55.50;95450.44;5032538;28;20248;-85
2022/03/08 07:47:30;;;;;;;19.05;11.85;;;2.60;70.70;;;2.03;55.25;95447.19;5027416;28;20197;-85
2022/03/08 07:49:57;;;;;;;17.50;11.70;;;2.70;70.70;;;2.14;55.27;95454.09;5020974;28;20266;-85
2022/03/08 07:52:24;;;;;;;19.45;10.93;;;2.80;70.80;;;2.26;55.32;95454.00;5030216;28;20200;-86
2022/03/08 07:54:52;;;;;;;15.82;10.32;;;2.80;70.70;;;2.30;54.65;95448.47;5017981;28;20710;-86
2022/03/08 07:57:19;;;;;;;14.88;10.27;;;2.90;70.60;;;2.38;54.75;95440.03;5018586;28;20221;-85
2022/03/08 07:59:46;;;;;;;17.75;10.48;;;3.00;70.50;;;2.56;54.86;95450.63;5024754;28;20271;-85
2022/03/08 08:02:13;;;;;;;17.10;10.85;;;3.10;70.40;;;2.62;54.61;95444.94;5018296;28;20209;-87
2022/03/08 08:04:41;;;;;;;15.43;9.32;;;3.20;70.30;;;2.77;54.48;95453.22;5032192;28;20234;-85
2022/03/08 08:07:08;;;;;;;15.77;9.80;;;3.30;70.10;;;2.88;54.43;95455.69;5022775;28;20205;-85
2022/03/08 08:09:37;;;;;;;15.68;9.88;;;3.40;70.10;;;2.95;54.18;95444.81;5009101;28;20235;-86
2022/03/08 08:12:06;;;;;;;15.63;8.85;;;3.50;69.80;;;3.06;53.49;95447.28;5016673;28;20202;-85
2022/03/08 08:14:33;;;;;;;14.95;8.68;;;3.50;69.70;;;3.18;53.71;95454.00;5025770;28;20624;-85
2022/03/08 08:17:00;;;;;;;14.75;9.10;;;3.60;69.60;;;3.28;53.56;95453.22;5018072;28;20658;-85
2022/03/08 08:19:28;;;;;;;17.05;9.02;;;3.70;69.40;;;3.37;53.28;95462.81;5053415;28;20212;-85
2022/03/08 08:21:55;;;;;;;16.48;9.52;;;3.80;69.40;;;3.44;53.17;95461.31;5020227;28;20727;-86
2022/03/08 08:24:23;;;;;;;15.80;9.25;;;3.90;69.30;;;3.47;52.95;95450.66;5037101;28;20306;-86
2022/03/08 08:26:50;;;;;;;15.45;9.73;;;4.00;70.00;;;3.57;52.71;95455.84;5031231;28;20196;-85
2022/03/08 08:29:18;;;;;;;11.30;8.27;;;4.00;69.00;;;3.66;52.90;95455.06;5017220;28;20229;-85
2022/03/08 08:31:45;;;;;;;15.68;9.10;;;4.10;69.00;;;3.75;53.02;95462.97;5049748;28;20639;-85
2022/03/08 08:34:12;;;;;;;16.33;9.55;;;4.20;69.00;;;3.72;52.52;95448.50;5027081;28;20228;-85
2022/03/08 08:36:39;;;;;;;15.45;9.10;;;4.20;68.90;;;3.84;52.96;95463.00;5006250;28;20231;-85
2022/03/08 08:39:07;;;;;;;12.48;9.32;;;4.30;68.90;;;3.93;52.68;95458.75;5051036;28;20282;-85
2022/03/08 08:41:34;;;;;;;15.40;9.45;;;4.40;68.90;;;3.98;52.70;95459.16;5031357;28;20278;-85
2022/03/08 08:44:01;;;;;;;14.25;9.77;;;4.50;68.90;;;4.05;52.48;95463.78;5024697;28;20212;-85
2022/03/08 08:46:29;;;;;;;13.55;9.10;;;4.50;68.70;;;4.11;52.23;95455.44;5019660;28;20208;-85
2022/03/08 08:48:56;;;;;;;15.68;9.07;;;4.60;68.80;;;4.10;52.60;95444.25;5029216;28;20302;-85
2022/03/08 08:51:23;;;;;;;13.30;9.02;;;4.60;68.60;;;4.26;52.03;95453.25;5020399;28;20224;-85
2022/03/08 08:53:51;;;;;;;13.90;7.78;;;4.70;69.50;;;4.32;52.00;95444.88;5030538;28;20468;-86
2022/03/08 08:56:18;;;;;;;15.13;8.10;;;4.70;68.60;;;4.43;52.27;95452.53;5017098;28;20201;-85
2022/03/08 08:58:45;;;;;;;13.00;7.57;;;4.80;68.60;;;4.52;52.06;95443.09;5006134;28;20259;-85
2022/03/08 09:01:12;;;;;;;12.85;7.85;;;4.90;68.50;;;4.63;51.62;95450.69;5032473;28;20197;-85
2022/03/08 09:03:39;;;;;;;14.63;8.27;;;5.00;68.40;;;4.72;52.04;95450.81;5001789;28;20230;-85
2022/03/08 09:06:07;;;;;;;13.00;7.63;;;5.00;68.30;;;4.80;51.37;95435.34;5033861;28;20212;-85
2022/03/08 09:08:34;;;;;;;12.65;7.60;;;5.10;68.20;;;4.92;51.54;95434.19;5017304;28;20220;-85
2022/03/08 09:11:01;;;;;;;11.98;8.10;;;5.20;68.20;;;4.97;51.30;95437.16;5008764;28;20229;-86
2022/03/08 09:13:29;;;;;;;12.60;7.93;;;5.30;68.10;;;5.02;51.33;95430.72;5022461;28;20631;-85
2022/03/08 09:15:56;;;;;;;10.60;7.43;;;5.40;68.20;;;5.15;51.21;95438.19;5034315;28;20601;-85
2022/03/08 09:18:23;;;;;;;11.18;7.18;;;5.40;68.20;;;5.31;51.51;95420.16;5024709;28;20210;-86
2022/03/08 09:20:50;;;;;;;10.35;7.22;;;5.50;68.40;;;5.58;51.47;95426.28;5030423;28;20251;-85
2022/03/08 09:23:18;;;;;;;10.77;6.88;;;5.60;68.70;;;5.88;51.39;95422.50;5041480;28;20225;-85
2022/03/08 09:25:45;;;;;;;11.25;6.20;;;5.80;68.80;;;6.16;50.98;95425.00;5004676;28;20197;-86
2022/03/08 09:28:12;;;;;;;10.05;5.80;;;6.00;68.80;;;6.41;50.95;95406.97;5018733;28;20253;-85
2022/03/08 09:30:41;;;;;;;7.68;4.80;;;6.10;68.90;;;6.86;50.76;95425.91;5028903;28;20228;-86
2022/03/08 09:33:09;;;;;;;6.80;4.70;;;6.40;68.80;;;7.24;50.47;95422.97;5015146;28;20315;-86
2022/03/08 09:35:37;;;;;;;8.85;5.57;;;6.60;68.90;;;7.45;50.03;95409.50;5030044;28;20279;-86
2022/03/08 09:38:04;;;;;;;8.93;5.65;;;6.90;68.90;;;7.73;49.74;95417.88;5030234;28;20205;-86
2022/03/08 09:40:32;;;;;;;6.22;5.03;;;7.20;68.80;;;7.98;49.57;95407.44;5015801;28;20576;-85
2022/03/08 09:42:59;;;;;;;11.80;5.30;;;7.50;68.60;;;8.30;49.45;95418.84;5015102;28;20200;-85
2022/03/08 09:45:27;;;;;;;6.47;4.60;;;7.70;68.40;;;8.55;48.78;95419.66;5012890;28;20223;-85
2022/03/08 09:47:54;;;;;;;82.53;53.90;;;8.00;69.10;;;8.64;48.78;95402.16;5011688;28;20196;-85
2022/03/08 09:50:21;;;;;;;29.25;23.75;;;8.20;67.90;;;8.92;48.63;95410.44;5024977;28;20569;-85
2022/03/08 09:52:48;;;;;;;17.58;12.85;;;8.40;67.70;;;9.01;48.07;95400.75;5031412;28;20262;-85
2022/03/08 09:55:17;;;;;;;15.00;8.77;;;8.60;67.20;;;9.12;47.37;95415.25;5015020;28;20569;-85
2022/03/08 09:57:47;;;;;;;12.90;6.57;;;8.80;66.20;;;9.11;47.34;95405.78;5016535;28;20681;-86
2022/03/08 10:00:14;;;;;;;9.52;6.22;;;8.90;66.20;;;9.09;46.82;95413.78;5031326;28;20193;-86
2022/03/08 10:02:47;;;;;;;7.82;5.68;;;9.00;65.50;;;8.93;44.89;95414.66;5019588;28;20200;-85
2022/03/08 10:05:17;;;;;;;7.88;6.07;;;9.00;63.70;;;8.72;44.83;95406.56;5023721;28;20231;-85
2022/03/08 10:08:03;;;;;;;9.30;6.30;;;9.10;63.60;;;8.53;44.71;95408.53;5016393;28;20639;-85
2022/03/08 10:10:31;;;;;;;9.05;6.13;;;9.00;63.30;;;8.39;44.82;95402.19;5036802;28;20246;-85
2022/03/08 10:13:00;;;;;;;10.02;6.10;;;9.00;63.60;;;8.16;43.79;95394.19;5012200;28;20207;-85
2022/03/08 10:15:27;;;;;;;9.10;5.47;;;8.90;63.00;;;8.19;44.97;95409.56;5016244;28;20606;-85
2022/03/08 10:17:54;;;;;;;8.20;5.63;;;8.80;63.30;;;8.19;44.93;95409.56;4999980;28;20197;-85
2022/03/08 10:20:31;;;;;;;10.98;6.18;;;8.70;63.30;;;8.18;45.01;95405.31;5044934;28;20228;-85